sensor_id;sensor_type;location;lat;lon;timestamp;P1;durP1;ratioP1;P2;durP2;ratioP2
64986;SDS011;67903;52.108;9.358;2024-03-23T00:53:57;16.15;;;7.00;;
64986;SDS011;67903;52.108;9.358;2024-03-23T00:56:42;12.77;;;7.75;;
64986;SDS011;67903;52.108;9.358;2024-03-23T00:59:27;15.52;;;7.90;;
64986;SDS011;67903;52.108;9.358;2024-03-23T01:02:12;12.30;;;7.25;;
64986;SDS011;67903;52.108;9.358;2024-03-23T01:04:57;16.27;;;7.65;;
64986;SDS011;67903;52.108;9.358;2024-03-23T01:07:41;14.88;;;7.68;;
64986;SDS011;67903;52.108;9.358;2024-03-23T01:10:26;16.40;;;7.88;;
64986;SDS011;67903;52.108;9.358;2024-03-23T01:13:11;14.38;;;8.32;;
64986;SDS011;67903;52.108;9.358;2024-03-23T01:15:56;16.25;;;7.78;;
64986;SDS011;67903;52.108;9.358;2024-03-23T01:18:40;13.45;;;7.20;;
64986;SDS011;67903;52.108;9.358;2024-03-23T01:21:25;13.65;;;7.47;;
64986;SDS011;67903;52.108;9.358;2024-03-23T01:24:10;13.43;;;7.63;;
64986;SDS011;67903;52.108;9.358;2024-03-23T01:26:54;11.73;;;7.05;;
64986;SDS011;67903;52.108;9.358;2024-03-23T01:29:39;15.25;;;7.40;;
64986;SDS011;67903;52.108;9.358;2024-03-23T01:32:24;12.90;;;7.88;;
64986;SDS011;67903;52.108;9.358;2024-03-23T01:35:09;16.52;;;7.45;;
64986;SDS011;67903;52.108;9.358;2024-03-23T01:37:53;13.18;;;7.50;;
64986;SDS011;67903;52.108;9.358;2024-03-23T01:40:38;18.30;;;7.78;;
64986;SDS011;67903;52.108;9.358;2024-03-23T01:43:23;13.15;;;7.95;;
64986;SDS011;67903;52.108;9.358;2024-03-23T01:46:07;11.93;;;6.85;;
64986;SDS011;67903;52.108;9.358;2024-03-23T01:48:52;15.45;;;6.90;;
64986;SDS011;67903;52.108;9.358;2024-03-23T01:51:38;13.70;;;6.95;;
64986;SDS011;67903;52.108;9.358;2024-03-23T01:54:23;15.43;;;7.32;;
64986;SDS011;67903;52.108;9.358;2024-03-23T01:57:07;12.13;;;6.28;;
64986;SDS011;67903;52.108;9.358;2024-03-23T01:59:52;11.63;;;6.63;;
64986;SDS011;67903;52.108;9.358;2024-03-23T02:02:44;11.90;;;6.13;;
64986;SDS011;67903;52.108;9.358;2024-03-23T02:05:29;12.65;;;5.15;;
64986;SDS011;67903;52.108;9.358;2024-03-23T02:08:14;11.65;;;5.15;;
64986;SDS011;67903;52.108;9.358;2024-03-23T02:10:58;8.35;;;5.15;;
64986;SDS011;67903;52.108;9.358;2024-03-23T02:13:43;11.68;;;4.78;;
64986;SDS011;67903;52.108;9.358;2024-03-23T02:16:27;7.38;;;4.10;;
64986;SDS011;67903;52.108;9.358;2024-03-23T02:19:12;8.35;;;3.80;;
64986;SDS011;67903;52.108;9.358;2024-03-23T02:21:57;10.13;;;4.28;;
64986;SDS011;67903;52.108;9.358;2024-03-23T02:24:42;9.75;;;4.43;;
64986;SDS011;67903;52.108;9.358;2024-03-23T02:27:27;9.45;;;3.95;;
64986;SDS011;67903;52.108;9.358;2024-03-23T02:30:13;8.57;;;4.13;;
64986;SDS011;67903;52.108;9.358;2024-03-23T02:32:57;9.27;;;4.53;;
64986;SDS011;67903;52.108;9.358;2024-03-23T02:35:43;9.90;;;3.72;;
64986;SDS011;67903;52.108;9.358;2024-03-23T02:38:28;9.93;;;3.75;;
64986;SDS011;67903;52.108;9.358;2024-03-23T02:41:12;7.45;;;3.58;;
64986;SDS011;67903;52.108;9.358;2024-03-23T02:43:58;8.05;;;3.80;;
64986;SDS011;67903;52.108;9.358;2024-03-23T02:46:42;6.50;;;3.78;;
64986;SDS011;67903;52.108;9.358;2024-03-23T02:49:27;9.65;;;3.53;;
64986;SDS011;67903;52.108;9.358;2024-03-23T02:52:11;8.73;;;3.80;;
64986;SDS011;67903;52.108;9.358;2024-03-23T02:54:56;8.15;;;3.45;;
64986;SDS011;67903;52.108;9.358;2024-03-23T02:57:41;7.57;;;3.85;;
64986;SDS011;67903;52.108;9.358;2024-03-23T03:00:26;9.07;;;3.67;;
64986;SDS011;67903;52.108;9.358;2024-03-23T03:03:11;10.32;;;3.92;;
64986;SDS011;67903;52.108;9.358;2024-03-23T03:05:56;10.93;;;4.32;;
64986;SDS011;67903;52.108;9.358;2024-03-23T03:08:41;8.15;;;3.60;;
64986;SDS011;67903;52.108;9.358;2024-03-23T03:11:25;10.38;;;3.35;;
64986;SDS011;67903;52.108;9.358;2024-03-23T03:14:10;9.27;;;3.72;;
64986;SDS011;67903;52.108;9.358;2024-03-23T03:16:55;10.63;;;3.75;;
64986;SDS011;67903;52.108;9.358;2024-03-23T03:19:40;8.68;;;3.53;;
64986;SDS011;67903;52.108;9.358;2024-03-23T03:22:24;10.15;;;3.38;;
64986;SDS011;67903;52.108;9.358;2024-03-23T03:25:09;9.80;;;3.53;;
64986;SDS011;67903;52.108;9.358;2024-03-23T03:27:54;8.80;;;3.72;;
64986;SDS011;67903;52.108;9.358;2024-03-23T03:30:38;11.48;;;4.40;;
64986;SDS011;67903;52.108;9.358;2024-03-23T03:33:23;13.40;;;4.13;;
64986;SDS011;67903;52.108;9.358;2024-03-23T03:36:07;11.10;;;4.32;;
64986;SDS011;67903;52.108;9.358;2024-03-23T03:38:52;12.93;;;4.85;;
64986;SDS011;67903;52.108;9.358;2024-03-23T03:41:37;11.45;;;4.82;;
64986;SDS011;67903;52.108;9.358;2024-03-23T03:44:21;8.63;;;5.22;;
64986;SDS011;67903;52.108;9.358;2024-03-23T03:47:06;11.63;;;4.32;;
64986;SDS011;67903;52.108;9.358;2024-03-23T03:49:51;8.20;;;4.18;;
64986;SDS011;67903;52.108;9.358;2024-03-23T03:52:35;13.10;;;4.97;;
64986;SDS011;67903;52.108;9.358;2024-03-23T03:55:20;11.02;;;3.80;;
64986;SDS011;67903;52.108;9.358;2024-03-23T03:58:05;9.00;;;4.40;;
64986;SDS011;67903;52.108;9.358;2024-03-23T04:00:49;12.30;;;4.55;;
64986;SDS011;67903;52.108;9.358;2024-03-23T04:03:34;9.95;;;4.10;;
64986;SDS011;67903;52.108;9.358;2024-03-23T04:06:19;12.35;;;4.75;;
64986;SDS011;67903;52.108;9.358;2024-03-23T04:09:04;13.15;;;5.13;;
64986;SDS011;67903;52.108;9.358;2024-03-23T04:11:48;12.13;;;4.68;;
64986;SDS011;67903;52.108;9.358;2024-03-23T04:14:33;9.90;;;4.10;;
64986;SDS011;67903;52.108;9.358;2024-03-23T04:17:17;12.93;;;4.15;;
64986;SDS011;67903;52.108;9.358;2024-03-23T04:20:03;8.85;;;3.80;;
64986;SDS011;67903;52.108;9.358;2024-03-23T04:22:53;11.25;;;4.25;;
64986;SDS011;67903;52.108;9.358;2024-03-23T04:25:37;9.02;;;4.22;;
64986;SDS011;67903;52.108;9.358;2024-03-23T04:28:22;13.00;;;5.13;;
64986;SDS011;67903;52.108;9.358;2024-03-23T04:31:06;11.85;;;4.13;;
64986;SDS011;67903;52.108;9.358;2024-03-23T04:33:51;8.80;;;4.25;;
64986;SDS011;67903;52.108;9.358;2024-03-23T04:36:35;9.98;;;4.30;;
64986;SDS011;67903;52.108;9.358;2024-03-23T04:39:20;9.73;;;4.18;;
64986;SDS011;67903;52.108;9.358;2024-03-23T04:42:05;11.25;;;5.03;;
64986;SDS011;67903;52.108;9.358;2024-03-23T04:44:49;14.85;;;4.13;;
64986;SDS011;67903;52.108;9.358;2024-03-23T04:47:35;10.55;;;5.20;;
64986;SDS011;67903;52.108;9.358;2024-03-23T04:50:20;7.53;;;4.30;;
64986;SDS011;67903;52.108;9.358;2024-03-23T04:53:05;12.43;;;4.13;;
64986;SDS011;67903;52.108;9.358;2024-03-23T04:55:50;8.00;;;3.60;;
64986;SDS011;67903;52.108;9.358;2024-03-23T04:58:34;9.32;;;3.50;;
64986;SDS011;67903;52.108;9.358;2024-03-23T05:01:19;9.20;;;4.25;;
64986;SDS011;67903;52.108;9.358;2024-03-23T05:04:04;9.45;;;3.95;;
64986;SDS011;67903;52.108;9.358;2024-03-23T05:06:49;10.27;;;4.00;;
64986;SDS011;67903;52.108;9.358;2024-03-23T05:09:34;7.55;;;4.13;;
64986;SDS011;67903;52.108;9.358;2024-03-23T05:12:18;8.50;;;4.78;;
64986;SDS011;67903;52.108;9.358;2024-03-23T05:15:04;12.77;;;4.47;;
64986;SDS011;67903;52.108;9.358;2024-03-23T05:17:50;8.98;;;4.50;;
64986;SDS011;67903;52.108;9.358;2024-03-23T05:20:34;11.50;;;4.43;;
64986;SDS011;67903;52.108;9.358;2024-03-23T05:23:19;15.40;;;4.78;;
64986;SDS011;67903;52.108;9.358;2024-03-23T05:26:03;11.30;;;4.07;;
64986;SDS011;67903;52.108;9.358;2024-03-23T05:28:49;7.20;;;3.97;;
64986;SDS011;67903;52.108;9.358;2024-03-23T05:31:33;7.82;;;3.50;;
64986;SDS011;67903;52.108;9.358;2024-03-23T05:34:18;11.40;;;3.70;;
64986;SDS011;67903;52.108;9.358;2024-03-23T05:37:03;11.07;;;4.45;;
64986;SDS011;67903;52.108;9.358;2024-03-23T05:39:48;6.07;;;3.25;;
64986;SDS011;67903;52.108;9.358;2024-03-23T05:42:35;9.75;;;3.97;;
64986;SDS011;67903;52.108;9.358;2024-03-23T05:45:20;13.30;;;4.22;;
64986;SDS011;67903;52.108;9.358;2024-03-23T05:48:06;7.85;;;3.95;;
64986;SDS011;67903;52.108;9.358;2024-03-23T05:50:52;8.88;;;3.80;;
64986;SDS011;67903;52.108;9.358;2024-03-23T05:53:36;10.15;;;3.45;;
64986;SDS011;67903;52.108;9.358;2024-03-23T05:56:21;10.40;;;3.33;;
64986;SDS011;67903;52.108;9.358;2024-03-23T05:59:05;9.85;;;3.55;;
64986;SDS011;67903;52.108;9.358;2024-03-23T06:01:51;9.80;;;3.38;;
64986;SDS011;67903;52.108;9.358;2024-03-23T06:04:36;9.23;;;3.35;;
64986;SDS011;67903;52.108;9.358;2024-03-23T06:07:21;7.25;;;3.30;;
64986;SDS011;67903;52.108;9.358;2024-03-23T06:10:05;11.05;;;3.80;;
64986;SDS011;67903;52.108;9.358;2024-03-23T06:12:51;8.13;;;4.20;;
64986;SDS011;67903;52.108;9.358;2024-03-23T06:15:38;9.30;;;4.28;;
64986;SDS011;67903;52.108;9.358;2024-03-23T06:18:23;10.20;;;3.65;;
64986;SDS011;67903;52.108;9.358;2024-03-23T06:21:12;11.73;;;3.95;;
64986;SDS011;67903;52.108;9.358;2024-03-23T06:23:58;6.90;;;3.53;;
64986;SDS011;67903;52.108;9.358;2024-03-23T06:26:43;8.57;;;4.32;;
64986;SDS011;67903;52.108;9.358;2024-03-23T06:29:27;9.45;;;4.57;;
64986;SDS011;67903;52.108;9.358;2024-03-23T06:32:12;8.98;;;4.32;;
64986;SDS011;67903;52.108;9.358;2024-03-23T06:34:56;10.18;;;4.95;;
64986;SDS011;67903;52.108;9.358;2024-03-23T06:37:41;14.07;;;4.75;;
64986;SDS011;67903;52.108;9.358;2024-03-23T06:40:26;6.88;;;4.35;;
64986;SDS011;67903;52.108;9.358;2024-03-23T06:43:11;11.30;;;5.22;;
64986;SDS011;67903;52.108;9.358;2024-03-23T06:45:55;12.10;;;4.45;;
64986;SDS011;67903;52.108;9.358;2024-03-23T06:48:40;8.27;;;4.90;;
64986;SDS011;67903;52.108;9.358;2024-03-23T06:51:25;13.70;;;5.10;;
64986;SDS011;67903;52.108;9.358;2024-03-23T06:54:10;13.00;;;5.50;;
64986;SDS011;67903;52.108;9.358;2024-03-23T06:56:54;10.38;;;5.28;;
64986;SDS011;67903;52.108;9.358;2024-03-23T06:59:39;10.60;;;5.80;;
64986;SDS011;67903;52.108;9.358;2024-03-23T07:02:24;15.73;;;6.20;;
64986;SDS011;67903;52.108;9.358;2024-03-23T07:05:08;13.82;;;5.43;;
64986;SDS011;67903;52.108;9.358;2024-03-23T07:07:53;15.02;;;6.55;;
64986;SDS011;67903;52.108;9.358;2024-03-23T07:10:41;12.50;;;5.90;;
64986;SDS011;67903;52.108;9.358;2024-03-23T07:13:25;11.10;;;5.85;;
64986;SDS011;67903;52.108;9.358;2024-03-23T07:16:10;17.95;;;6.35;;
64986;SDS011;67903;52.108;9.358;2024-03-23T07:18:55;12.25;;;6.05;;
64986;SDS011;67903;52.108;9.358;2024-03-23T07:21:39;11.75;;;6.07;;
64986;SDS011;67903;52.108;9.358;2024-03-23T07:24:24;16.95;;;6.13;;
64986;SDS011;67903;52.108;9.358;2024-03-23T07:27:08;11.23;;;6.03;;
64986;SDS011;67903;52.108;9.358;2024-03-23T07:29:53;12.10;;;5.90;;
64986;SDS011;67903;52.108;9.358;2024-03-23T07:32:39;12.77;;;6.80;;
64986;SDS011;67903;52.108;9.358;2024-03-23T07:35:23;11.40;;;6.18;;
64986;SDS011;67903;52.108;9.358;2024-03-23T07:38:08;14.60;;;5.72;;
64986;SDS011;67903;52.108;9.358;2024-03-23T07:41:01;11.60;;;5.88;;
64986;SDS011;67903;52.108;9.358;2024-03-23T07:43:47;15.38;;;6.22;;
64986;SDS011;67903;52.108;9.358;2024-03-23T07:46:32;15.00;;;6.35;;
64986;SDS011;67903;52.108;9.358;2024-03-23T07:49:17;18.52;;;7.10;;
64986;SDS011;67903;52.108;9.358;2024-03-23T07:52:02;13.20;;;6.05;;
64986;SDS011;67903;52.108;9.358;2024-03-23T07:54:46;17.02;;;6.68;;
64986;SDS011;67903;52.108;9.358;2024-03-23T07:57:31;16.40;;;5.70;;
64986;SDS011;67903;52.108;9.358;2024-03-23T08:00:16;12.85;;;5.82;;
64986;SDS011;67903;52.108;9.358;2024-03-23T08:03:01;14.90;;;6.28;;
64986;SDS011;67903;52.108;9.358;2024-03-23T08:05:45;11.65;;;5.82;;
64986;SDS011;67903;52.108;9.358;2024-03-23T08:08:30;14.07;;;6.10;;
64986;SDS011;67903;52.108;9.358;2024-03-23T08:11:14;17.33;;;6.78;;
64986;SDS011;67903;52.108;9.358;2024-03-23T08:13:59;14.32;;;6.30;;
64986;SDS011;67903;52.108;9.358;2024-03-23T08:16:45;14.38;;;6.47;;
64986;SDS011;67903;52.108;9.358;2024-03-23T08:19:32;12.00;;;5.50;;
64986;SDS011;67903;52.108;9.358;2024-03-23T08:22:17;19.00;;;6.35;;
64986;SDS011;67903;52.108;9.358;2024-03-23T08:25:02;11.38;;;6.28;;
64986;SDS011;67903;52.108;9.358;2024-03-23T08:27:46;11.57;;;5.95;;
64986;SDS011;67903;52.108;9.358;2024-03-23T08:30:31;17.13;;;6.45;;
64986;SDS011;67903;52.108;9.358;2024-03-23T08:33:16;13.40;;;6.13;;
64986;SDS011;67903;52.108;9.358;2024-03-23T08:36:01;15.00;;;7.50;;
64986;SDS011;67903;52.108;9.358;2024-03-23T08:38:47;14.77;;;6.97;;
64986;SDS011;67903;52.108;9.358;2024-03-23T08:41:34;14.63;;;7.28;;
64986;SDS011;67903;52.108;9.358;2024-03-23T08:44:19;13.93;;;6.75;;
64986;SDS011;67903;52.108;9.358;2024-03-23T08:47:03;10.88;;;6.30;;
64986;SDS011;67903;52.108;9.358;2024-03-23T08:49:48;16.40;;;6.95;;
64986;SDS011;67903;52.108;9.358;2024-03-23T08:52:33;9.95;;;6.20;;
64986;SDS011;67903;52.108;9.358;2024-03-23T08:55:18;15.45;;;7.63;;
64986;SDS011;67903;52.108;9.358;2024-03-23T08:58:02;16.73;;;6.85;;
64986;SDS011;67903;52.108;9.358;2024-03-23T09:00:48;13.30;;;6.75;;
64986;SDS011;67903;52.108;9.358;2024-03-23T09:03:33;12.52;;;6.65;;
64986;SDS011;67903;52.108;9.358;2024-03-23T09:06:19;16.30;;;6.35;;
64986;SDS011;67903;52.108;9.358;2024-03-23T09:09:03;14.25;;;6.22;;
64986;SDS011;67903;52.108;9.358;2024-03-23T09:11:48;9.00;;;6.18;;
64986;SDS011;67903;52.108;9.358;2024-03-23T09:14:33;15.25;;;6.13;;
64986;SDS011;67903;52.108;9.358;2024-03-23T09:17:18;12.52;;;4.95;;
64986;SDS011;67903;52.108;9.358;2024-03-23T09:20:03;11.77;;;5.20;;
64986;SDS011;67903;52.108;9.358;2024-03-23T09:22:49;9.48;;;5.28;;
64986;SDS011;67903;52.108;9.358;2024-03-23T09:25:37;13.02;;;5.20;;
64986;SDS011;67903;52.108;9.358;2024-03-23T09:28:22;9.70;;;4.82;;
64986;SDS011;67903;52.108;9.358;2024-03-23T09:31:07;12.07;;;5.00;;
64986;SDS011;67903;52.108;9.358;2024-03-23T09:33:52;11.82;;;5.13;;
64986;SDS011;67903;52.108;9.358;2024-03-23T09:36:37;9.80;;;4.25;;
64986;SDS011;67903;52.108;9.358;2024-03-23T09:39:22;15.27;;;5.22;;
64986;SDS011;67903;52.108;9.358;2024-03-23T09:42:07;12.68;;;5.50;;
64986;SDS011;67903;52.108;9.358;2024-03-23T09:44:51;20.80;;;5.88;;
64986;SDS011;67903;52.108;9.358;2024-03-23T09:47:36;14.60;;;6.05;;
64986;SDS011;67903;52.108;9.358;2024-03-23T09:50:21;12.40;;;5.53;;
64986;SDS011;67903;52.108;9.358;2024-03-23T09:53:09;10.93;;;5.45;;
64986;SDS011;67903;52.108;9.358;2024-03-23T09:55:57;13.38;;;4.95;;
64986;SDS011;67903;52.108;9.358;2024-03-23T09:58:42;12.75;;;5.28;;
64986;SDS011;67903;52.108;9.358;2024-03-23T10:01:26;11.40;;;4.80;;
64986;SDS011;67903;52.108;9.358;2024-03-23T10:04:35;8.57;;;4.22;;
64986;SDS011;67903;52.108;9.358;2024-03-23T10:07:21;9.60;;;3.90;;
64986;SDS011;67903;52.108;9.358;2024-03-23T10:10:10;13.77;;;4.75;;
64986;SDS011;67903;52.108;9.358;2024-03-23T10:12:55;9.43;;;4.05;;
64986;SDS011;67903;52.108;9.358;2024-03-23T10:15:39;11.68;;;4.10;;
64986;SDS011;67903;52.108;9.358;2024-03-23T10:18:24;8.18;;;3.15;;
64986;SDS011;67903;52.108;9.358;2024-03-23T10:21:10;8.70;;;3.53;;
64986;SDS011;67903;52.108;9.358;2024-03-23T10:23:55;5.95;;;3.45;;
64986;SDS011;67903;52.108;9.358;2024-03-23T10:26:40;8.23;;;3.40;;
64986;SDS011;67903;52.108;9.358;2024-03-23T10:29:25;7.85;;;4.13;;
64986;SDS011;67903;52.108;9.358;2024-03-23T10:32:12;8.88;;;3.88;;
64986;SDS011;67903;52.108;9.358;2024-03-23T10:35:16;7.43;;;4.03;;
64986;SDS011;67903;52.108;9.358;2024-03-23T10:38:07;7.38;;;3.20;;
64986;SDS011;67903;52.108;9.358;2024-03-23T10:40:52;6.35;;;3.20;;
64986;SDS011;67903;52.108;9.358;2024-03-23T10:43:39;5.45;;;2.88;;
64986;SDS011;67903;52.108;9.358;2024-03-23T10:46:23;5.15;;;2.88;;
64986;SDS011;67903;52.108;9.358;2024-03-23T10:49:08;4.45;;;2.35;;
64986;SDS011;67903;52.108;9.358;2024-03-23T10:51:52;3.95;;;1.52;;
64986;SDS011;67903;52.108;9.358;2024-03-23T10:54:37;2.80;;;1.77;;
64986;SDS011;67903;52.108;9.358;2024-03-23T11:00:28;1.30;;;1.20;;
64986;SDS011;67903;52.108;9.358;2024-03-23T11:06:37;2.55;;;1.30;;
64986;SDS011;67903;52.108;9.358;2024-03-23T11:15:12;3.45;;;1.75;;
64986;SDS011;67903;52.108;9.358;2024-03-23T11:18:07;2.67;;;1.83;;
64986;SDS011;67903;52.108;9.358;2024-03-23T11:20:52;3.25;;;1.90;;
64986;SDS011;67903;52.108;9.358;2024-03-23T11:23:37;4.90;;;2.17;;
64986;SDS011;67903;52.108;9.358;2024-03-23T11:26:22;2.78;;;2.10;;
64986;SDS011;67903;52.108;9.358;2024-03-23T11:29:11;5.65;;;2.05;;
64986;SDS011;67903;52.108;9.358;2024-03-23T11:31:56;5.85;;;2.17;;
64986;SDS011;67903;52.108;9.358;2024-03-23T11:34:42;5.47;;;2.15;;
64986;SDS011;67903;52.108;9.358;2024-03-23T11:37:27;4.57;;;1.70;;
64986;SDS011;67903;52.108;9.358;2024-03-23T11:40:18;3.83;;;1.38;;
64986;SDS011;67903;52.108;9.358;2024-03-23T11:43:07;2.38;;;1.60;;
64986;SDS011;67903;52.108;9.358;2024-03-23T11:45:53;3.78;;;1.67;;
64986;SDS011;67903;52.108;9.358;2024-03-23T11:48:39;2.50;;;1.33;;
64986;SDS011;67903;52.108;9.358;2024-03-23T11:51:24;4.88;;;1.70;;
64986;SDS011;67903;52.108;9.358;2024-03-23T11:54:08;3.38;;;1.77;;
64986;SDS011;67903;52.108;9.358;2024-03-23T11:57:00;5.80;;;2.40;;
64986;SDS011;67903;52.108;9.358;2024-03-23T11:59:48;3.70;;;2.00;;
64986;SDS011;67903;52.108;9.358;2024-03-23T12:02:32;4.30;;;2.05;;
64986;SDS011;67903;52.108;9.358;2024-03-23T12:05:17;3.80;;;2.22;;
64986;SDS011;67903;52.108;9.358;2024-03-23T12:08:16;4.45;;;2.50;;
64986;SDS011;67903;52.108;9.358;2024-03-23T12:11:05;4.13;;;2.35;;
64986;SDS011;67903;52.108;9.358;2024-03-23T12:13:57;9.88;;;2.40;;
64986;SDS011;67903;52.108;9.358;2024-03-23T12:16:44;6.00;;;2.38;;
64986;SDS011;67903;52.108;9.358;2024-03-23T12:19:28;4.03;;;2.95;;
64986;SDS011;67903;52.108;9.358;2024-03-23T12:22:13;4.72;;;2.55;;
64986;SDS011;67903;52.108;9.358;2024-03-23T12:24:58;4.13;;;2.58;;
64986;SDS011;67903;52.108;9.358;2024-03-23T12:27:43;8.55;;;2.58;;
64986;SDS011;67903;52.108;9.358;2024-03-23T12:30:27;4.38;;;2.83;;
64986;SDS011;67903;52.108;9.358;2024-03-23T12:33:12;5.88;;;3.20;;
64986;SDS011;67903;52.108;9.358;2024-03-23T12:35:57;5.32;;;3.05;;
64986;SDS011;67903;52.108;9.358;2024-03-23T12:38:41;7.18;;;3.63;;
64986;SDS011;67903;52.108;9.358;2024-03-23T12:41:27;5.15;;;3.40;;
64986;SDS011;67903;52.108;9.358;2024-03-23T12:44:12;5.50;;;3.47;;
64986;SDS011;67903;52.108;9.358;2024-03-23T12:46:57;8.70;;;3.38;;
64986;SDS011;67903;52.108;9.358;2024-03-23T12:49:42;5.57;;;2.45;;
64986;SDS011;67903;52.108;9.358;2024-03-23T12:52:27;8.25;;;2.58;;
64986;SDS011;67903;52.108;9.358;2024-03-23T12:55:12;5.30;;;2.92;;
64986;SDS011;67903;52.108;9.358;2024-03-23T12:57:57;4.32;;;2.47;;
64986;SDS011;67903;52.108;9.358;2024-03-23T13:00:42;5.22;;;2.63;;
64986;SDS011;67903;52.108;9.358;2024-03-23T13:03:26;5.63;;;3.13;;
64986;SDS011;67903;52.108;9.358;2024-03-23T13:06:11;6.57;;;3.00;;
64986;SDS011;67903;52.108;9.358;2024-03-23T13:08:56;6.03;;;2.90;;
64986;SDS011;67903;52.108;9.358;2024-03-23T13:11:40;4.35;;;3.05;;
64986;SDS011;67903;52.108;9.358;2024-03-23T13:14:25;5.72;;;2.92;;
64986;SDS011;67903;52.108;9.358;2024-03-23T13:17:10;6.47;;;3.17;;
64986;SDS011;67903;52.108;9.358;2024-03-23T13:19:54;8.98;;;3.80;;
64986;SDS011;67903;52.108;9.358;2024-03-23T13:22:42;5.35;;;2.95;;
64986;SDS011;67903;52.108;9.358;2024-03-23T13:25:27;5.60;;;3.03;;
64986;SDS011;67903;52.108;9.358;2024-03-23T13:28:11;6.10;;;3.50;;
64986;SDS011;67903;52.108;9.358;2024-03-23T13:30:56;4.95;;;3.45;;
64986;SDS011;67903;52.108;9.358;2024-03-23T13:33:48;6.28;;;3.65;;
64986;SDS011;67903;52.108;9.358;2024-03-23T13:36:32;7.93;;;3.15;;
64986;SDS011;67903;52.108;9.358;2024-03-23T13:39:17;6.43;;;4.18;;
64986;SDS011;67903;52.108;9.358;2024-03-23T13:42:02;7.28;;;3.50;;
64986;SDS011;67903;52.108;9.358;2024-03-23T13:44:47;10.02;;;3.60;;
64986;SDS011;67903;52.108;9.358;2024-03-23T13:47:34;12.70;;;4.63;;
64986;SDS011;67903;52.108;9.358;2024-03-23T13:50:18;4.88;;;3.20;;
64986;SDS011;67903;52.108;9.358;2024-03-23T13:53:03;6.32;;;3.75;;
64986;SDS011;67903;52.108;9.358;2024-03-23T13:55:48;6.60;;;3.58;;
64986;SDS011;67903;52.108;9.358;2024-03-23T13:58:33;6.00;;;3.55;;
64986;SDS011;67903;52.108;9.358;2024-03-23T14:01:18;5.82;;;3.33;;
64986;SDS011;67903;52.108;9.358;2024-03-23T14:04:02;4.85;;;2.90;;
64986;SDS011;67903;52.108;9.358;2024-03-23T14:06:47;5.05;;;2.97;;
64986;SDS011;67903;52.108;9.358;2024-03-23T14:09:32;4.13;;;2.30;;
64986;SDS011;67903;52.108;9.358;2024-03-23T14:12:16;2.58;;;1.30;;
64986;SDS011;67903;52.108;9.358;2024-03-23T14:15:01;3.13;;;1.30;;
64986;SDS011;67903;52.108;9.358;2024-03-23T14:17:46;1.77;;;1.10;;
64986;SDS011;67903;52.108;9.358;2024-03-23T14:20:31;1.55;;;1.20;;
64986;SDS011;67903;52.108;9.358;2024-03-23T14:23:16;1.58;;;1.27;;
64986;SDS011;67903;52.108;9.358;2024-03-23T14:26:01;1.45;;;1.35;;
64986;SDS011;67903;52.108;9.358;2024-03-23T14:28:45;1.35;;;1.13;;
64986;SDS011;67903;52.108;9.358;2024-03-23T14:31:30;2.97;;;1.30;;
64986;SDS011;67903;52.108;9.358;2024-03-23T14:34:15;1.25;;;1.10;;
64986;SDS011;67903;52.108;9.358;2024-03-23T14:37:00;2.13;;;1.20;;
64986;SDS011;67903;52.108;9.358;2024-03-23T14:39:44;3.88;;;1.38;;
64986;SDS011;67903;52.108;9.358;2024-03-23T14:42:29;2.45;;;1.30;;
64986;SDS011;67903;52.108;9.358;2024-03-23T14:45:15;2.00;;;1.48;;
64986;SDS011;67903;52.108;9.358;2024-03-23T14:48:00;1.63;;;1.23;;
64986;SDS011;67903;52.108;9.358;2024-03-23T14:50:45;2.40;;;1.33;;
64986;SDS011;67903;52.108;9.358;2024-03-23T14:53:32;1.55;;;1.45;;
64986;SDS011;67903;52.108;9.358;2024-03-23T14:56:18;2.72;;;1.50;;
64986;SDS011;67903;52.108;9.358;2024-03-23T14:59:02;1.92;;;1.50;;
64986;SDS011;67903;52.108;9.358;2024-03-23T15:01:47;2.60;;;2.08;;
64986;SDS011;67903;52.108;9.358;2024-03-23T15:04:32;3.17;;;1.63;;
64986;SDS011;67903;52.108;9.358;2024-03-23T15:07:16;2.95;;;1.92;;
64986;SDS011;67903;52.108;9.358;2024-03-23T15:10:01;2.58;;;1.75;;
64986;SDS011;67903;52.108;9.358;2024-03-23T15:12:45;2.83;;;1.70;;
64986;SDS011;67903;52.108;9.358;2024-03-23T15:15:30;3.05;;;1.85;;
64986;SDS011;67903;52.108;9.358;2024-03-23T15:18:15;2.60;;;1.80;;
64986;SDS011;67903;52.108;9.358;2024-03-23T15:21:00;3.40;;;1.75;;
64986;SDS011;67903;52.108;9.358;2024-03-23T15:23:47;2.05;;;1.65;;
64986;SDS011;67903;52.108;9.358;2024-03-23T15:26:32;6.70;;;1.90;;
64986;SDS011;67903;52.108;9.358;2024-03-23T15:29:16;3.33;;;1.58;;
64986;SDS011;67903;52.108;9.358;2024-03-23T15:32:01;4.75;;;2.03;;
64986;SDS011;67903;52.108;9.358;2024-03-23T15:34:45;4.65;;;1.60;;
64986;SDS011;67903;52.108;9.358;2024-03-23T15:37:31;4.68;;;2.08;;
64986;SDS011;67903;52.108;9.358;2024-03-23T15:40:15;4.35;;;1.40;;
64986;SDS011;67903;52.108;9.358;2024-03-23T15:43:00;3.70;;;1.60;;
64986;SDS011;67903;52.108;9.358;2024-03-23T15:45:53;4.13;;;1.60;;
64986;SDS011;67903;52.108;9.358;2024-03-23T15:48:43;2.63;;;1.63;;
64986;SDS011;67903;52.108;9.358;2024-03-23T15:51:30;3.58;;;1.70;;
64986;SDS011;67903;52.108;9.358;2024-03-23T15:54:17;3.83;;;1.70;;
64986;SDS011;67903;52.108;9.358;2024-03-23T15:57:01;7.55;;;4.80;;
64986;SDS011;67903;52.108;9.358;2024-03-23T15:59:46;8.23;;;4.88;;
64986;SDS011;67903;52.108;9.358;2024-03-23T16:02:30;4.38;;;2.25;;
64986;SDS011;67903;52.108;9.358;2024-03-23T16:05:15;2.20;;;1.80;;
64986;SDS011;67903;52.108;9.358;2024-03-23T16:08:00;1.95;;;1.85;;
64986;SDS011;67903;52.108;9.358;2024-03-23T16:10:44;2.78;;;2.00;;
64986;SDS011;67903;52.108;9.358;2024-03-23T16:13:29;2.42;;;1.98;;
64986;SDS011;67903;52.108;9.358;2024-03-23T16:16:14;3.78;;;2.20;;
64986;SDS011;67903;52.108;9.358;2024-03-23T16:18:59;4.50;;;2.10;;
64986;SDS011;67903;52.108;9.358;2024-03-23T16:21:44;2.35;;;1.70;;
64986;SDS011;67903;52.108;9.358;2024-03-23T16:24:29;2.70;;;1.65;;
64986;SDS011;67903;52.108;9.358;2024-03-23T16:27:13;2.25;;;1.80;;
64986;SDS011;67903;52.108;9.358;2024-03-23T16:29:58;2.90;;;2.00;;
64986;SDS011;67903;52.108;9.358;2024-03-23T16:32:43;3.67;;;1.75;;
64986;SDS011;67903;52.108;9.358;2024-03-23T16:35:27;4.28;;;1.85;;
64986;SDS011;67903;52.108;9.358;2024-03-23T16:38:13;2.83;;;2.08;;
64986;SDS011;67903;52.108;9.358;2024-03-23T16:41:01;5.40;;;2.40;;
64986;SDS011;67903;52.108;9.358;2024-03-23T16:43:53;4.32;;;2.20;;
64986;SDS011;67903;52.108;9.358;2024-03-23T16:46:37;4.10;;;2.38;;
64986;SDS011;67903;52.108;9.358;2024-03-23T16:49:22;3.38;;;2.40;;
64986;SDS011;67903;52.108;9.358;2024-03-23T16:52:07;3.67;;;1.98;;
64986;SDS011;67903;52.108;9.358;2024-03-23T16:54:53;2.95;;;1.90;;
64986;SDS011;67903;52.108;9.358;2024-03-23T16:57:37;3.05;;;2.20;;
64986;SDS011;67903;52.108;9.358;2024-03-23T17:00:22;2.70;;;2.00;;
64986;SDS011;67903;52.108;9.358;2024-03-23T17:03:07;3.95;;;2.10;;
64986;SDS011;67903;52.108;9.358;2024-03-23T17:05:52;3.08;;;2.58;;
64986;SDS011;67903;52.108;9.358;2024-03-23T17:08:39;5.05;;;2.53;;
64986;SDS011;67903;52.108;9.358;2024-03-23T17:11:23;3.17;;;2.47;;
64986;SDS011;67903;52.108;9.358;2024-03-23T17:14:08;5.43;;;2.25;;
64986;SDS011;67903;52.108;9.358;2024-03-23T17:16:56;4.30;;;2.33;;
64986;SDS011;67903;52.108;9.358;2024-03-23T17:19:41;4.40;;;2.10;;
64986;SDS011;67903;52.108;9.358;2024-03-23T17:22:25;2.92;;;2.33;;
64986;SDS011;67903;52.108;9.358;2024-03-23T17:25:10;3.00;;;2.40;;
64986;SDS011;67903;52.108;9.358;2024-03-23T17:27:56;5.90;;;3.15;;
64986;SDS011;67903;52.108;9.358;2024-03-23T17:30:41;5.30;;;3.33;;
64986;SDS011;67903;52.108;9.358;2024-03-23T17:33:26;5.43;;;2.83;;
64986;SDS011;67903;52.108;9.358;2024-03-23T17:36:11;3.70;;;2.40;;